Time;durP1;ratioP1;P1;durP2;ratioP2;P2;SDS_P1;SDS_P2;PMS_P1;PMS_P2;Temp;Humidity;BMP_temperature;BMP_pressure;BME280_temperature;BME280_humidity;BME280_pressure;Samples;Min_cycle;Max_cycle;Signal;HPM_P1;HPM_P2
2021/11/02 00:02:10;;;;;;;62.42;32.75;;;;;;;10.73;70.06;99337.03;5030658;28;20029;-37
2021/11/02 00:04:36;;;;;;;55.70;30.60;;;;;;;10.57;69.80;99333.03;5030786;28;20045;-38
2021/11/02 00:07:02;;;;;;;49.22;27.95;;;;;;;10.63;69.79;99331.38;5030988;28;20044;-38
2021/11/02 00:09:30;;;;;;;45.17;26.20;;;;;;;10.53;68.81;99334.50;5039164;28;20023;-38
2021/11/02 00:12:01;;;;;;;46.75;26.08;;;;;;;10.32;69.31;99331.13;5050601;28;20028;-39
2021/11/02 00:14:28;;;;;;;45.22;26.05;;;;;;;10.15;70.01;99336.06;5050471;28;20500;-38
2021/11/02 00:16:58;;;;;;;41.35;23.15;;;;;;;10.31;68.93;99326.81;5050513;28;20159;-38
2021/11/02 00:19:26;;;;;;;45.25;24.48;;;;;;;10.42;67.23;99325.34;5050318;28;20033;-38
2021/11/02 00:21:54;;;;;;;45.00;23.92;;;;;;;10.23;67.56;99320.91;5050640;28;20021;-38
2021/11/02 00:27:00;;;;;;;42.97;23.58;;;;;;;10.21;68.16;99318.44;5050019;28;20033;-38
2021/11/02 00:29:25;;;;;;;43.78;23.60;;;;;;;10.26;67.83;99301.84;5049913;28;20036;-38
2021/11/02 00:31:51;;;;;;;40.47;23.33;;;;;;;10.31;67.99;99294.09;5049983;28;20025;-38
2021/11/02 00:34:16;;;;;;;44.22;23.20;;;;;;;10.48;67.54;99289.91;5049609;28;20482;-38
2021/11/02 00:36:42;;;;;;;41.50;22.65;;;;;;;10.42;67.67;99288.09;5049453;28;20033;-38
2021/11/02 00:39:07;;;;;;;39.65;23.08;;;;;;;10.27;69.00;99285.69;5049793;28;20036;-38
2021/11/02 00:41:33;;;;;;;43.05;23.13;;;;;;;10.32;68.18;99280.59;5049874;28;20025;-38
2021/11/02 00:43:58;;;;;;;43.45;22.77;;;;;;;10.59;67.80;99279.63;5049771;28;20028;-38
2021/11/02 00:46:31;;;;;;;42.15;22.95;;;;;;;10.65;68.23;99282.22;5049660;28;20025;-39
2021/11/02 00:49:00;;;;;;;43.15;23.00;;;;;;;10.62;67.14;99284.50;5049777;28;20508;-38
2021/11/02 00:51:25;;;;;;;42.70;23.83;;;;;;;10.82;67.29;99287.03;5049417;28;20104;-38
2021/11/02 00:53:51;;;;;;;38.72;22.17;;;;;;;10.62;67.30;99282.63;5049268;28;20025;-38
2021/11/02 00:56:16;;;;;;;43.67;22.55;;;;;;;10.45;68.41;99278.88;5049622;28;20554;-40
2021/11/02 00:58:42;;;;;;;42.50;22.27;;;;;;;10.41;68.01;99269.69;5049345;28;20041;-38
2021/11/02 01:01:07;;;;;;;39.28;21.88;;;;;;;10.39;68.48;99271.75;5049538;28;20082;-37
2021/11/02 01:03:34;;;;;;;40.90;22.83;;;;;;;10.57;67.35;99267.31;5049355;28;20025;-38
2021/11/02 01:05:59;;;;;;;40.33;22.42;;;;;;;10.51;67.95;99268.19;5049525;28;20036;-38
2021/11/02 01:08:25;;;;;;;42.78;22.38;;;;;;;10.48;68.03;99265.94;5031573;28;20021;-38
2021/11/02 01:10:52;;;;;;;41.47;22.85;;;;;;;10.52;67.41;99269.00;5049637;28;20037;-38
2021/11/02 01:13:18;;;;;;;39.28;22.60;;;;;;;10.46;67.38;99268.00;5049445;28;20036;-37
2021/11/02 01:15:43;;;;;;;39.17;22.42;;;;;;;10.61;66.83;99262.41;5049382;28;20025;-38
2021/11/02 01:18:09;;;;;;;42.08;21.60;;;;;;;10.69;67.55;99264.78;5049424;28;20082;-37
2021/11/02 01:20:34;;;;;;;42.45;22.63;;;;;;;10.70;66.82;99254.94;5049191;28;20465;-37
2021/11/02 01:23:00;;;;;;;36.13;20.75;;;;;;;10.73;66.18;99251.88;5049736;28;20029;-37
2021/11/02 01:25:25;;;;;;;40.97;21.33;;;;;;;10.88;66.06;99252.34;5049292;28;20477;-37
2021/11/02 01:27:51;;;;;;;39.95;21.77;;;;;;;10.60;67.27;99238.66;5049617;28;20020;-38
2021/11/02 01:30:16;;;;;;;39.28;21.75;;;;;;;10.60;67.25;99247.44;5048313;28;20473;-38
2021/11/02 01:32:44;;;;;;;37.00;20.77;;;;;;;10.59;67.60;99240.50;5049386;28;20115;-38
2021/11/02 01:35:09;;;;;;;35.03;20.65;;;;;;;10.94;66.26;99237.38;5049336;28;20481;-38
2021/11/02 01:37:38;;;;;;;36.58;20.95;;;;;;;10.79;66.31;99235.03;5049478;28;20029;-38
2021/11/02 01:40:09;;;;;;;34.92;20.85;;;;;;;10.69;66.92;99238.19;5049399;28;20040;-38
2021/11/02 01:42:34;;;;;;;32.95;19.75;;;;;;;10.92;66.24;99229.59;5049546;28;20033;-37
2021/11/02 01:45:00;;;;;;;35.50;20.42;;;;;;;10.76;66.41;99225.63;5049176;28;20032;-39
2021/11/02 01:47:25;;;;;;;38.22;20.25;;;;;;;10.57;67.30;99222.09;5049094;28;20045;-39
2021/11/02 01:49:51;;;;;;;35.47;20.42;;;;;;;10.75;67.43;99228.50;5051318;28;20036;-37
2021/11/02 01:52:17;;;;;;;36.95;21.17;;;;;;;11.02;65.88;99225.63;5052168;28;20415;-38
2021/11/02 01:54:42;;;;;;;37.65;20.90;;;;;;;11.00;66.00;99233.81;5052253;28;20030;-38
2021/11/02 01:57:08;;;;;;;36.78;21.02;;;;;;;10.85;66.99;99223.53;5052547;28;20032;-38
2021/11/02 01:59:34;;;;;;;37.38;22.00;;;;;;;10.78;67.36;99225.44;5052631;28;20506;-38
2021/11/02 02:02:08;;;;;;;45.47;22.65;;;;;;;10.72;68.30;99227.09;5052486;28;20040;-37
2021/11/02 02:04:45;;;;;;;43.63;22.50;;;;;;;10.69;67.45;99218.75;5050977;28;20520;-37
2021/11/02 02:07:13;;;;;;;42.08;22.58;;;;;;;10.99;66.88;99228.75;5052663;28;20024;-38
2021/11/02 02:09:39;;;;;;;42.90;22.65;;;;;;;10.65;67.74;99226.34;5051524;28;20016;-38
2021/11/02 02:12:12;;;;;;;43.28;22.67;;;;;;;10.58;67.49;99228.22;5052451;28;20029;-38
2021/11/02 02:14:58;;;;;;;42.90;22.60;;;;;;;10.35;69.92;99232.25;5051380;28;20615;-38
2021/11/02 02:17:32;;;;;;;38.85;22.15;;;;;;;10.30;69.87;99248.06;5052528;28;20047;-39
2021/11/02 02:20:07;;;;;;;46.70;22.98;;;;;;;10.13;69.79;99222.97;5052617;28;20033;-37
2021/11/02 02:22:49;;;;;;;42.38;22.75;;;;;;;9.99;70.78;99248.78;5051532;28;20024;-39
2021/11/02 02:25:31;;;;;;;41.38;21.10;;;;;;;10.01;70.44;99257.38;5052278;28;20504;-38
2021/11/02 02:28:18;;;;;;;40.63;22.10;;;;;;;10.04;70.15;99259.63;5051898;28;20025;-37
2021/11/02 02:30:55;;;;;;;39.72;22.05;;;;;;;10.12;69.94;99250.56;5050730;28;20123;-37
2021/11/02 02:33:22;;;;;;;41.78;21.85;;;;;;;10.22;68.54;99224.34;5051181;28;20073;-39
2021/11/02 02:35:49;;;;;;;40.20;21.63;;;;;;;10.23;69.79;99243.78;5050623;28;20039;-38
2021/11/02 02:38:14;;;;;;;37.67;21.52;;;;;;;10.10;69.51;99248.13;5034568;28;20098;-38
2021/11/02 02:40:40;;;;;;;37.78;20.77;;;;;;;9.98;69.50;99244.53;5050827;28;20025;-38
2021/11/02 02:43:05;;;;;;;40.75;21.55;;;;;;;9.82;70.37;99235.16;5052156;28;20021;-38
2021/11/02 02:45:31;;;;;;;38.65;20.98;;;;;;;9.88;69.78;99230.84;5050637;28;20060;-38
2021/11/02 02:47:56;;;;;;;43.95;21.92;;;;;;;9.73;70.76;99220.50;5034115;28;20040;-39
2021/11/02 02:50:22;;;;;;;42.30;21.80;;;;;;;9.62;70.48;99224.63;5050472;28;20029;-38
2021/11/02 02:52:47;;;;;;;40.78;21.80;;;;;;;9.97;69.67;99225.06;5033926;28;20036;-38
2021/11/02 02:55:13;;;;;;;38.63;21.13;;;;;;;9.60;71.11;99224.03;5033985;28;20373;-38
2021/11/02 02:57:39;;;;;;;46.75;22.13;;;;;;;9.68;71.51;99218.47;5034012;28;20037;-38
2021/11/02 03:00:05;;;;;;;42.95;21.55;;;;;;;9.86;70.30;99216.97;5050416;28;20024;-38
2021/11/02 03:02:31;;;;;;;42.78;22.30;;;;;;;9.94;70.28;99216.72;5052220;28;20057;-38
2021/11/02 03:04:57;;;;;;;42.10;22.35;;;;;;;9.92;69.51;99226.75;5034672;28;20468;-38
2021/11/02 03:07:23;;;;;;;96.57;49.30;;;;;;;9.66;71.24;99222.38;5034194;28;20032;-38
2021/11/02 03:09:49;;;;;;;133.20;64.60;;;;;;;9.68;71.68;99228.28;5034520;28;20021;-38
2021/11/02 03:12:19;;;;;;;45.83;23.58;;;;;;;9.34;72.45;99230.22;5051053;28;20033;-38
2021/11/02 03:17:28;;;;;;;43.55;23.00;;;;;;;9.41;72.79;99225.72;5035839;28;20425;-38
2021/11/02 03:45:02;;;;;;;39.45;22.30;;;;;;;8.99;73.67;99138.41;5050333;28;20031;-38
2021/11/02 03:50:27;;;;;;;43.30;22.30;;;;;;;8.84;75.23;99179.47;5050146;28;20040;-37
2021/11/02 03:55:33;;;;;;;46.33;22.55;;;;;;;8.57;76.12;99198.84;5049950;28;20563;-37
2021/11/02 03:58:04;;;;;;;49.90;23.92;;;;;;;8.52;76.18;99211.09;5033655;28;20116;-37
2021/11/02 05:46:54;;;;;;;42.25;21.48;;;;;;;8.63;76.96;99133.56;5053333;28;20463;-38
2021/11/02 05:52:33;;;;;;;38.53;19.77;;;;;;;8.72;75.47;99119.06;5052908;28;20040;-38
2021/11/02 06:27:57;;;;;;;27.88;13.85;;;;;;;9.51;69.82;99111.06;5030238;28;20048;-38
2021/11/02 06:30:45;;;;;;;23.55;12.65;;;;;;;9.43;68.41;99114.78;5029437;28;20327;-38
2021/11/02 06:33:30;;;;;;;22.98;11.65;;;;;;;9.62;67.03;99113.03;5030340;28;20095;-36
2021/11/02 06:54:50;;;;;;;23.05;11.70;;;;;;;10.44;66.28;99104.34;5046847;28;20025;-39
2021/11/02 07:00:49;;;;;;;24.40;12.55;;;;;;;10.42;67.47;99104.56;5042508;28;20103;-38
2021/11/02 07:17:16;;;;;;;28.02;13.88;;;;;;;11.01;67.07;99106.88;5051627;28;20036;-38
2021/11/02 07:19:59;;;;;;;27.63;14.93;;;;;;;11.06;67.24;99104.31;5050913;28;20021;-37
2021/11/02 07:22:40;;;;;;;33.78;14.32;;;;;;;11.15;67.51;99100.34;5051238;28;20052;-39
2021/11/02 08:46:41;;;;;;;66.32;26.13;;;;;;;10.99;81.88;99056.50;5049272;28;20023;-55
2021/11/02 08:49:07;;;;;;;69.57;28.25;;;;;;;11.02;82.66;99047.25;5049227;28;20028;-54
2021/11/02 08:51:34;;;;;;;59.45;25.13;;;;;;;11.01;82.96;99046.44;5049391;28;20021;-55
2021/11/02 08:54:00;;;;;;;67.20;25.58;;;;;;;10.80;84.80;99060.19;5049324;28;20448;-55
2021/11/02 08:56:25;;;;;;;60.55;25.55;;;;;;;11.01;83.88;99054.41;5048472;28;20106;-55
2021/11/02 08:58:53;;;;;;;59.40;26.25;;;;;;;11.14;83.57;99046.28;5048173;28;20036;-54
2021/11/02 09:01:18;;;;;;;66.75;27.35;;;;;;;11.20;83.06;99054.41;5049086;28;20025;-55
2021/11/02 09:03:45;;;;;;;63.78;26.98;;;;;;;10.95;83.20;99023.38;5048414;28;20080;-41
2021/11/02 09:06:13;;;;;;;62.63;26.85;;;;;;;11.16;83.89;99046.06;5049550;28;20013;-40
2021/11/02 09:08:43;;;;;;;63.08;27.27;;;;;;;11.18;83.35;99043.16;5049589;28;20016;-55
2021/11/02 09:11:08;;;;;;;62.25;26.95;;;;;;;11.03;84.30;99038.22;5050319;28;20056;-55
2021/11/02 09:13:34;;;;;;;59.35;27.17;;;;;;;10.86;85.83;99035.34;5049982;28;20025;-55
2021/11/02 09:16:00;;;;;;;60.13;25.67;;;;;;;10.71;86.55;99027.72;5050032;28;20017;-55
2021/11/02 09:18:27;;;;;;;57.15;26.65;;;;;;;10.57;86.57;99035.06;5049650;28;20025;-54
2021/11/02 09:20:52;;;;;;;54.33;24.75;;;;;;;10.76;85.91;99027.88;5049949;28;20140;-54
2021/11/02 09:23:18;;;;;;;54.47;23.60;;;;;;;10.69;84.75;99035.94;5054862;28;20020;-55
2021/11/02 09:25:43;;;;;;;45.60;22.23;;;;;;;10.39;86.12;99043.81;5059003;28;20437;-56
2021/11/02 09:28:09;;;;;;;44.22;23.45;;;;;;;10.48;86.22;99041.69;5062868;28;20377;-56
2021/11/02 09:30:34;;;;;;;43.45;21.92;;;;;;;10.22;85.26;99038.19;5052284;28;20086;-54
2021/11/02 09:33:00;;;;;;;43.83;21.50;;;;;;;10.32;85.61;99038.56;5064964;28;20099;-54
2021/11/02 09:35:30;;;;;;;45.58;23.05;;;;;;;10.35;86.18;99032.78;5056547;28;20025;-55
2021/11/02 09:38:26;;;;;;;44.55;22.55;;;;;;;10.50;85.18;99028.97;5057092;28;20032;-56
2021/11/02 09:41:37;;;;;;;45.25;23.55;;;;;;;10.52;85.44;99017.06;5065234;28;20308;-55
2021/11/02 09:44:10;;;;;;;45.10;23.05;;;;;;;10.36;85.91;99012.34;5062093;28;20048;-56
2021/11/02 09:46:50;;;;;;;46.03;23.08;;;;;;;10.62;85.94;99016.56;5052157;28;20044;-56
2021/11/02 09:49:31;;;;;;;48.20;23.23;;;;;;;10.52;86.07;99010.94;5061340;28;20021;-54
2021/11/02 09:51:59;;;;;;;;;;;;;;;10.63;84.98;99012.88;5061217;28;20059;-53
2021/11/02 09:54:27;;;;;;;46.55;22.67;;;;;;;10.67;85.64;99013.25;5053107;28;20378;-54
2021/11/02 09:57:21;;;;;;;44.22;22.85;;;;;;;10.47;86.17;99016.09;5064963;28;20459;-55
2021/11/02 09:59:52;;;;;;;48.33;23.75;;;;;;;10.55;85.30;99026.47;5051603;28;20505;-54
2021/11/02 10:02:35;;;;;;;42.42;22.75;;;;;;;10.43;86.39;99026.38;5051675;28;20029;-54
2021/11/02 10:05:08;;;;;;;48.85;23.40;;;;;;;10.52;85.64;99022.38;5035860;28;20019;-55
2021/11/02 10:07:45;;;;;;;44.42;23.67;;;;;;;10.37;86.09;99032.56;5059328;28;20503;-54
2021/11/02 10:10:16;;;;;;;41.88;21.27;;;;;;;10.44;85.97;99048.47;5046052;28;20028;-55
2021/11/02 10:12:57;;;;;;;43.42;23.25;;;;;;;10.52;84.87;99045.53;5055841;28;20554;-54
2021/11/02 10:15:33;;;;;;;42.83;24.02;;;;;;;10.48;85.52;99050.47;5063531;28;20025;-55
2021/11/02 10:18:47;;;;;;;43.90;23.65;;;;;;;10.64;85.54;99056.25;5064519;28;20028;-55
2021/11/02 10:21:27;;;;;;;;;;;;;;;10.49;86.74;99061.91;5035706;28;20028;-54
2021/11/02 10:24:36;;;;;;;43.67;23.65;;;;;;;10.44;84.97;99061.78;5049876;28;20003;-54
2021/11/02 10:27:43;;;;;;;41.58;23.05;;;;;;;10.44;85.03;99070.56;5039480;28;20381;-54
2021/11/02 10:30:17;;;;;;;41.88;23.05;;;;;;;10.53;84.74;99065.78;5037964;28;20072;-53
2021/11/02 10:32:43;;;;;;;42.38;23.33;;;;;;;10.41;86.37;99076.31;5068365;28;20040;-55
2021/11/02 10:35:32;;;;;;;61.60;34.60;;;;;;;10.50;86.53;99083.00;5055959;28;20089;-55
2021/11/02 10:38:00;;;;;;;45.80;24.60;;;;;;;10.53;86.92;99092.41;5058473;28;20021;-54
2021/11/02 10:40:51;;;;;;;44.38;25.55;;;;;;;10.64;86.18;99089.03;5067709;28;20024;-55
2021/11/02 10:43:37;;;;;;;44.55;24.42;;;;;;;10.61;86.09;99080.66;5041493;28;20029;-56
2021/11/02 10:46:04;;;;;;;44.10;24.55;;;;;;;10.51;86.94;99073.19;5057399;28;20342;-55
2021/11/02 10:48:38;;;;;;;45.03;26.20;;;;;;;10.57;85.81;99075.75;5068542;28;20024;-55
2021/11/02 10:51:05;;;;;;;47.03;26.88;;;;;;;10.35;86.71;99082.50;5055419;28;20089;-57
2021/11/02 10:53:35;;;;;;;44.40;25.55;;;;;;;10.38;86.52;99076.78;5063405;28;20481;-56
2021/11/02 10:56:08;;;;;;;47.38;26.35;;;;;;;10.42;86.40;99063.84;5064389;28;20032;-55
2021/11/02 10:58:55;;;;;;;48.47;28.20;;;;;;;10.53;86.16;99055.16;5054747;28;20031;-55
2021/11/02 11:01:22;;;;;;;57.08;31.15;;;;;;;10.51;86.27;99050.03;5064295;28;20099;-56
2021/11/02 11:03:47;;;;;;;48.78;26.90;;;;;;;10.48;86.60;99049.66;5062139;28;20066;-55
2021/11/02 11:06:13;;;;;;;49.33;27.83;;;;;;;10.54;86.55;99035.47;5056755;28;20520;-54
2021/11/02 11:08:40;;;;;;;46.92;25.38;;;;;;;10.46;86.46;99023.28;5068579;28;20476;-55
2021/11/02 11:11:09;;;;;;;46.03;26.15;;;;;;;10.50;87.25;99015.69;5066121;28;20029;-57
2021/11/02 11:13:37;;;;;;;48.95;27.30;;;;;;;10.43;87.68;99007.75;5060243;28;20452;-54
2021/11/02 11:16:09;;;;;;;50.67;28.13;;;;;;;10.50;87.44;98992.53;5058078;28;20442;-54
2021/11/02 11:18:51;;;;;;;49.72;27.15;;;;;;;10.49;87.30;98977.63;5066025;28;20059;-54
2021/11/02 11:21:16;;;;;;;49.65;27.60;;;;;;;10.50;88.07;98973.91;5055563;28;20017;-54
2021/11/02 11:23:43;;;;;;;46.33;24.83;;;;;;;10.59;87.04;98963.81;5060708;28;20044;-53
2021/11/02 11:26:08;;;;;;;37.15;22.85;;;;;;;10.69;85.50;98949.97;5064517;28;20032;-54
2021/11/02 11:28:36;;;;;;;40.13;21.63;;;;;;;10.48;87.08;98946.72;5052574;28;20024;-53
2021/11/02 11:31:01;;;;;;;37.13;20.77;;;;;;;10.51;86.27;98937.50;5065717;28;20017;-54
2021/11/02 11:33:28;;;;;;;34.53;19.70;;;;;;;10.14;88.58;98908.22;5058561;28;20051;-54
2021/11/02 11:35:53;;;;;;;32.05;19.45;;;;;;;10.17;88.01;98886.50;5058581;28;20064;-53
2021/11/02 11:38:19;;;;;;;28.75;17.20;;;;;;;9.89;89.02;98873.72;5047578;28;20032;-53
2021/11/02 11:40:45;;;;;;;28.35;17.75;;;;;;;10.15;88.04;98885.91;5033564;28;20047;-51
2021/11/02 11:43:12;;;;;;;25.60;15.73;;;;;;;10.14;87.93;98902.88;5056056;28;20044;-52
2021/11/02 11:45:41;;;;;;;22.40;14.55;;;;;;;10.26;86.90;98927.72;5061505;28;20012;-51
2021/11/02 11:48:21;;;;;;;24.48;14.82;;;;;;;10.38;87.14;98951.75;5063737;28;20028;-53
2021/11/02 11:50:47;;;;;;;21.25;14.05;;;;;;;10.48;86.24;98957.38;5053402;28;20115;-52
2021/11/02 11:53:23;;;;;;;20.58;13.23;;;;;;;10.60;86.80;98946.78;5061953;28;20199;-52
2021/11/02 11:56:21;;;;;;;18.70;12.00;;;;;;;10.67;85.57;98950.19;5061191;28;20056;-51
2021/11/02 11:58:51;;;;;;;18.15;12.02;;;;;;;10.59;86.11;98963.81;5030642;28;20036;-53
2021/11/02 12:01:35;;;;;;;45.25;25.75;;;;;;;10.78;85.47;98955.81;5063157;28;20017;-51
2021/11/02 12:04:25;;;;;;;21.90;13.88;;;;;;;10.82;86.17;98952.47;5062545;28;20423;-51
2021/11/02 12:07:15;;;;;;;18.67;12.38;;;;;;;10.89;85.08;98947.03;5053372;28;20100;-52
2021/11/02 12:09:44;;;;;;;18.33;12.30;;;;;;;10.85;85.36;98928.09;5068165;28;20025;-51
2021/11/02 12:12:10;;;;;;;17.63;11.60;;;;;;;10.76;86.25;98916.13;5056238;28;20033;-52
2021/11/02 12:14:43;;;;;;;21.15;13.30;;;;;;;10.99;87.17;98917.25;5050886;28;20087;-50
2021/11/02 12:17:13;;;;;;;18.38;13.05;;;;;;;11.23;85.45;98958.06;5030536;28;20472;-53
2021/11/02 12:19:44;;;;;;;22.52;14.57;;;;;;;11.16;83.42;98952.84;5044642;28;20529;-52
2021/11/02 12:22:16;;;;;;;20.92;14.60;;;;;;;11.22;83.97;98959.94;5031219;28;20496;-53
2021/11/02 12:24:42;;;;;;;24.45;15.50;;;;;;;11.33;85.09;98966.34;5048549;28;20083;-53
2021/11/02 12:27:15;;;;;;;23.88;16.20;;;;;;;11.37;83.96;98950.72;5050011;28;20163;-52
2021/11/02 12:29:42;;;;;;;27.83;17.77;;;;;;;11.50;83.70;98938.00;5050946;28;20025;-53
2021/11/02 12:32:12;;;;;;;32.20;21.48;;;;;;;11.59;83.46;98933.13;5048859;28;20052;-50
2021/11/02 12:34:51;;;;;;;41.67;28.00;;;;;;;11.43;84.48;98920.50;5049550;28;20438;-50
2021/11/02 12:37:17;;;;;;;46.78;30.67;;;;;;;11.74;82.55;98919.34;5048501;28;20032;-52
2021/11/02 12:39:43;;;;;;;44.22;30.52;;;;;;;11.70;82.12;98924.34;5050066;28;20032;-50
2021/11/02 12:42:09;;;;;;;46.78;29.95;;;;;;;11.66;82.01;98917.84;5050570;28;20488;-49
2021/11/02 12:44:35;;;;;;;46.45;28.73;;;;;;;11.72;81.63;98924.91;5064289;28;20476;-50
2021/11/02 12:47:03;;;;;;;41.28;25.40;;;;;;;11.80;81.62;98936.28;5053787;28;20028;-51
2021/11/02 12:49:40;;;;;;;37.00;24.20;;;;;;;11.93;80.21;98928.91;5060933;28;20021;-49
2021/11/02 12:52:10;;;;;;;34.05;22.05;;;;;;;12.05;80.72;98904.91;5062224;28;20515;-53
2021/11/02 12:54:37;;;;;;;30.73;20.38;;;;;;;12.10;82.57;98896.19;5052045;28;20064;-49
2021/11/02 12:57:05;;;;;;;25.35;15.60;;;;;;;12.09;80.58;98886.59;5063963;28;20027;-49
2021/11/02 12:59:37;;;;;;;20.90;14.40;;;;;;;11.94;80.58;98895.06;5056962;28;20111;-53
2021/11/02 13:02:32;;;;;;;33.55;22.50;;;;;;;11.94;80.55;98921.72;5053589;28;20080;-50
2021/11/02 13:05:05;;;;;;;66.43;36.28;;;;;;;11.82;83.20;98934.19;5036516;28;20122;-51
2021/11/02 13:07:38;;;;;;;24.55;14.95;;;;;;;11.67;82.61;98926.66;5059448;28;20340;-51
2021/11/02 13:10:14;;;;;;;24.08;14.70;;;;;;;11.82;80.94;98928.88;5059538;28;20035;-52
2021/11/02 13:12:42;;;;;;;26.35;15.13;;;;;;;11.85;80.89;98939.88;5050218;28;20094;-51
2021/11/02 13:15:11;;;;;;;23.70;14.23;;;;;;;11.85;81.28;98944.41;5054670;28;20112;-50
2021/11/02 13:17:43;;;;;;;23.67;14.32;;;;;;;11.74;81.86;98944.16;5058530;28;20068;-49
2021/11/02 13:20:10;;;;;;;23.83;14.18;;;;;;;11.65;82.06;98937.56;5061664;28;20029;-47
2021/11/02 13:22:35;;;;;;;24.15;14.23;;;;;;;11.90;83.05;98944.56;5051265;28;20473;-49
2021/11/02 13:25:07;;;;;;;31.63;19.90;;;;;;;12.04;80.44;98935.28;5063323;28;20024;-48
2021/11/02 13:27:34;;;;;;;22.95;14.80;;;;;;;12.27;79.63;98939.78;5057067;28;20036;-50
2021/11/02 13:30:34;;;;;;;23.98;15.32;;;;;;;12.47;78.60;98939.41;5055081;28;20036;-47
2021/11/02 13:33:02;;;;;;;24.85;16.92;;;;;;;12.45;79.40;98936.16;5035731;28;20524;-49
2021/11/02 13:35:54;;;;;;;23.27;15.10;;;;;;;12.48;81.00;98937.56;5059407;28;20458;-48
2021/11/02 13:38:38;;;;;;;24.60;16.42;;;;;;;12.50;79.65;98943.47;5063019;28;20456;-51
2021/11/02 13:41:04;;;;;;;28.05;18.17;;;;;;;12.48;80.97;98943.69;5037490;28;20027;-50
2021/11/02 13:43:34;;;;;;;25.50;16.23;;;;;;;12.71;77.08;98928.66;5059353;28;20021;-47
2021/11/02 13:45:59;;;;;;;26.13;16.77;;;;;;;12.65;77.54;98934.97;5064182;28;20031;-47
2021/11/02 13:48:27;;;;;;;29.40;17.27;;;;;;;12.52;78.36;98936.03;5055882;28;20033;-48
2021/11/02 13:50:56;;;;;;;26.58;17.05;;;;;;;12.42;78.35;98951.84;5068141;28;20021;-50
2021/11/02 13:53:22;;;;;;;26.77;17.50;;;;;;;12.62;78.01;98952.28;5058547;28;20080;-49
2021/11/02 13:55:48;;;;;;;26.88;17.33;;;;;;;12.63;77.47;98956.53;5060541;28;20112;-51
2021/11/02 13:58:13;;;;;;;26.67;17.98;;;;;;;12.68;77.36;98953.19;5047753;28;20024;-49
2021/11/02 14:00:39;;;;;;;26.40;17.30;;;;;;;12.80;76.79;98948.59;5054377;28;20043;-47
2021/11/02 14:03:16;;;;;;;26.75;17.65;;;;;;;12.57;77.91;98954.81;5047924;28;20029;-49
2021/11/02 14:05:44;;;;;;;26.13;17.48;;;;;;;12.52;78.50;98958.19;5043509;28;20012;-48
2021/11/02 14:08:09;;;;;;;30.73;18.20;;;;;;;12.57;78.15;98946.81;5056046;28;20108;-49
2021/11/02 14:10:35;;;;;;;80.85;45.00;;;;;;;12.58;77.09;98943.09;5066316;28;20028;-48
2021/11/02 14:13:01;;;;;;;28.30;18.55;;;;;;;12.49;77.53;98940.00;5055727;28;20013;-51
2021/11/02 14:15:30;;;;;;;27.17;18.30;;;;;;;12.60;77.07;98940.19;5063008;28;20115;-48
2021/11/02 14:17:56;;;;;;;28.95;18.58;;;;;;;12.47;76.99;98941.25;5062850;28;20024;-50
2021/11/02 14:20:36;;;;;;;33.45;19.90;;;;;;;12.44;77.70;98950.56;5055737;28;20383;-49
2021/11/02 14:23:02;;;;;;;;;;;;;;;12.51;76.68;98943.22;5041078;28;20021;-47
2021/11/02 14:25:35;;;;;;;31.05;18.55;;;;;;;12.37;77.88;98936.50;5063190;28;19916;-51
2021/11/02 14:28:01;;;;;;;31.00;18.73;;;;;;;12.30;77.97;98944.66;5063725;28;20454;-48
2021/11/02 14:30:32;;;;;;;31.88;19.10;;;;;;;12.39;79.86;98950.44;5054385;28;20076;-50
2021/11/02 14:32:59;;;;;;;31.55;17.65;;;;;;;12.40;78.70;98945.94;5038863;28;20122;-49
2021/11/02 14:35:39;;;;;;;31.52;18.88;;;;;;;12.07;80.15;98945.50;5063144;28;20029;-51
2021/11/02 14:38:09;;;;;;;33.47;19.33;;;;;;;12.08;80.23;98941.78;5064011;28;20064;-48
2021/11/02 14:40:36;;;;;;;33.17;19.40;;;;;;;11.89;81.31;98956.22;5053899;28;20026;-51
2021/11/02 14:43:14;;;;;;;33.22;19.33;;;;;;;12.05;80.57;98936.91;5065901;28;20021;-50
2021/11/02 14:45:44;;;;;;;31.55;19.40;;;;;;;12.00;80.95;98952.78;5060200;28;20032;-50
2021/11/02 14:48:25;;;;;;;34.78;20.15;;;;;;;12.10;80.30;98945.00;5054918;28;20416;-50
2021/11/02 14:50:54;;;;;;;35.90;20.15;;;;;;;11.91;80.90;98954.19;5067149;28;20127;-51
2021/11/02 14:53:28;;;;;;;34.08;20.58;;;;;;;11.91;80.65;98948.84;5057214;28;20081;-48
2021/11/02 14:56:11;;;;;;;43.53;26.15;;;;;;;11.89;81.95;98957.06;5057365;28;20037;-51
2021/11/02 14:58:41;;;;;;;55.97;32.88;;;;;;;11.87;81.10;98959.13;5066467;28;20033;-49
2021/11/02 15:01:13;;;;;;;76.15;45.35;;;;;;;11.99;80.65;98964.50;5054746;28;20047;-48
2021/11/02 15:03:58;;;;;;;46.17;27.70;;;;;;;12.15;80.78;98959.50;5060433;28;20029;-51
2021/11/02 15:06:34;;;;;;;38.35;23.13;;;;;;;12.04;81.08;98956.63;5065450;28;20032;-48
2021/11/02 15:09:00;;;;;;;40.20;22.85;;;;;;;11.90;80.38;98952.56;5039288;28;20546;-49
2021/11/02 15:11:26;;;;;;;37.95;22.20;;;;;;;11.72;81.42;98954.22;5061901;28;20021;-49
2021/11/02 15:14:03;;;;;;;39.53;23.33;;;;;;;11.79;81.29;98958.66;5060982;28;20107;-48
2021/11/02 15:16:28;;;;;;;35.50;22.48;;;;;;;11.69;81.36;98957.38;5053130;28;20090;-49
2021/11/02 15:19:03;;;;;;;39.30;22.52;;;;;;;11.67;81.61;98951.47;5036525;28;20024;-48
2021/11/02 15:21:37;;;;;;;129.15;73.85;;;;;;;11.60;81.24;98953.41;5056588;28;20035;-49
2021/11/02 15:24:07;;;;;;;64.53;35.08;;;;;;;11.51;82.08;98962.78;5062628;28;20398;-50
2021/11/02 15:26:45;;;;;;;43.13;25.50;;;;;;;11.58;81.32;98966.16;5052673;28;20061;-51
2021/11/02 15:29:11;;;;;;;37.90;23.33;;;;;;;11.66;81.43;98970.34;5062124;28;20436;-49
2021/11/02 15:31:37;;;;;;;41.30;24.42;;;;;;;11.51;83.01;98970.78;5053430;28;20032;-51
2021/11/02 15:34:15;;;;;;;39.65;23.90;;;;;;;11.50;82.70;98975.31;5049171;28;20180;-51
2021/11/02 15:36:44;;;;;;;39.00;22.25;;;;;;;11.35;83.03;98973.06;5053713;28;20021;-52
2021/11/02 15:39:10;;;;;;;35.92;21.80;;;;;;;11.26;83.21;98971.75;5061760;28;20032;-51
2021/11/02 15:41:35;;;;;;;112.63;61.83;;;;;;;11.40;82.26;98977.69;5057097;28;20051;-52
2021/11/02 15:44:02;;;;;;;133.77;68.78;;;;;;;11.72;85.68;98972.91;5056904;28;20039;-51
2021/11/02 15:46:37;;;;;;;46.17;25.83;;;;;;;11.84;81.07;98970.28;5066544;28;20029;-50
2021/11/02 15:49:09;;;;;;;35.67;21.58;;;;;;;11.57;80.94;98985.84;5053564;28;20446;-51
2021/11/02 15:51:50;;;;;;;38.58;23.02;;;;;;;11.48;81.53;98977.38;5060214;28;20033;-49
2021/11/02 15:54:16;;;;;;;39.78;23.52;;;;;;;11.50;82.20;98974.50;5060818;28;20028;-51
2021/11/02 15:56:41;;;;;;;59.90;34.97;;;;;;;11.32;82.71;98975.34;5051297;28;20033;-49
2021/11/02 15:59:08;;;;;;;42.88;25.33;;;;;;;11.27;83.65;98981.38;5064549;28;20032;-49
2021/11/02 16:01:39;;;;;;;41.13;23.70;;;;;;;11.02;83.86;98986.00;5051397;28;20029;-49
2021/11/02 16:04:20;;;;;;;40.38;23.52;;;;;;;11.06;84.01;98981.84;5048558;28;20041;-52
2021/11/02 16:06:57;;;;;;;;;;;;;;;10.96;83.98;98977.88;5049021;28;20561;-50
2021/11/02 16:09:43;;;;;;;43.22;24.75;;;;;;;11.09;84.09;98976.09;5049764;28;19966;-52
2021/11/02 16:12:30;;;;;;;42.20;24.63;;;;;;;10.69;86.23;98973.94;5049896;28;20035;-50
2021/11/02 16:15:23;;;;;;;48.08;24.75;;;;;;;10.96;84.55;98987.72;5049966;28;20107;-52
2021/11/02 16:17:56;;;;;;;44.00;24.90;;;;;;;10.88;84.21;98980.03;5040307;28;20086;-52
2021/11/02 16:20:30;;;;;;;41.05;24.30;;;;;;;10.85;83.64;98973.31;5048560;28;20431;-51
2021/11/02 16:23:04;;;;;;;46.28;24.60;;;;;;;10.59;85.28;98978.97;5048274;28;20550;-50
2021/11/02 16:25:31;;;;;;;49.25;27.00;;;;;;;10.74;85.35;98990.03;5048272;28;20075;-49
2021/11/02 16:28:16;;;;;;;50.33;27.70;;;;;;;10.69;85.14;98997.88;5049935;28;20078;-50
2021/11/02 16:30:54;;;;;;;53.38;29.48;;;;;;;10.60;86.02;99002.66;5049534;28;20021;-50
2021/11/02 16:33:33;;;;;;;47.85;27.38;;;;;;;10.54;85.40;99007.03;5047766;28;20072;-50
2021/11/02 16:36:14;;;;;;;49.38;28.35;;;;;;;10.73;85.12;99001.72;5049103;28;20434;-51